Time;durP1;ratioP1;P1;durP2;ratioP2;P2;SDS_P1;SDS_P2;PMS_P1;PMS_P2;Temp;Humidity;BMP_temperature;BMP_pressure;BME280_temperature;BME280_humidity;BME280_pressure;Samples;Min_cycle;Max_cycle;Signal;HPM_P1;HPM_P2
2021/07/27 00:02:19;;;;;;;53.25;32.65;;;;;;;;;;4968374;28;21570;-72
2021/07/27 00:04:44;;;;;;;53.67;32.10;;;;;;;;;;4969450;28;20191;-72
2021/07/27 00:07:10;;;;;;;49.75;29.88;;;;;;;;;;4967321;28;20599;-72
2021/07/27 00:09:35;;;;;;;46.00;29.87;;;;;;;;;;4970251;28;20253;-72
2021/07/27 00:12:00;;;;;;;43.90;28.38;;;;;;;;;;4967478;28;20437;-73
2021/07/27 00:14:25;;;;;;;47.47;29.90;;;;;;;;;;4967007;28;20255;-73
2021/07/27 00:16:50;;;;;;;46.83;28.58;;;;;;;;;;4967006;28;22186;-73
2021/07/27 00:19:16;;;;;;;47.63;29.10;;;;;;;;;;4966697;28;21429;-73
2021/07/27 00:21:41;;;;;;;52.47;30.13;;;;;;;;;;4966960;28;20884;-72
2021/07/27 00:24:06;;;;;;;45.30;30.77;;;;;;;;;;4966732;28;20434;-72
2021/07/27 00:26:31;;;;;;;45.63;29.73;;;;;;;;;;4965555;28;21941;-71
2021/07/27 00:28:57;;;;;;;54.13;30.87;;;;;;;;;;4966528;28;20780;-72
2021/07/27 00:31:22;;;;;;;47.17;29.75;;;;;;;;;;4967671;28;20452;-72
2021/07/27 00:33:47;;;;;;;42.92;28.60;;;;;;;;;;4965834;28;20311;-74
2021/07/27 00:36:13;;;;;;;40.60;28.17;;;;;;;;;;4973006;28;20540;-71
2021/07/27 00:38:38;;;;;;;41.05;29.00;;;;;;;;;;4969117;28;20334;-72
2021/07/27 00:41:03;;;;;;;45.25;28.70;;;;;;;;;;4983271;28;20192;-74
2021/07/27 00:43:29;;;;;;;46.53;29.77;;;;;;;;;;4983766;28;20179;-74
2021/07/27 00:45:54;;;;;;;43.58;29.33;;;;;;;;;;4974954;28;20448;-73
2021/07/27 00:48:19;;;;;;;43.10;28.00;;;;;;;;;;4968525;28;20267;-73
2021/07/27 00:50:45;;;;;;;40.65;28.33;;;;;;;;;;4966095;28;20188;-72
2021/07/27 00:53:10;;;;;;;42.63;28.70;;;;;;;;;;4967877;28;21612;-72
2021/07/27 00:55:35;;;;;;;47.75;29.38;;;;;;;;;;4965275;28;20271;-72
2021/07/27 00:58:01;;;;;;;42.67;30.63;;;;;;;;;;4971845;28;20584;-72
2021/07/27 01:00:26;;;;;;;45.67;28.30;;;;;;;;;;4970710;28;20179;-72
2021/07/27 01:02:52;;;;;;;43.28;28.13;;;;;;;;;;4966004;28;20188;-73
2021/07/27 01:05:17;;;;;;;43.70;28.23;;;;;;;;;;4964327;28;20179;-72
2021/07/27 01:07:43;;;;;;;48.85;30.27;;;;;;;;;;4968194;28;20219;-72
2021/07/27 01:10:09;;;;;;;47.28;29.25;;;;;;;;;;4965379;28;20180;-72
2021/07/27 01:12:35;;;;;;;45.45;29.67;;;;;;;;;;4970678;28;20184;-72
2021/07/27 01:15:00;;;;;;;45.78;30.25;;;;;;;;;;4966824;28;20724;-71
2021/07/27 01:17:26;;;;;;;41.72;30.13;;;;;;;;;;4966783;28;20572;-74
2021/07/27 01:44:03;;;;;;;53.67;32.33;;;;;;;;;;4970587;28;20190;-74
2021/07/27 01:46:38;;;;;;;62.10;34.28;;;;;;;;;;4971016;28;20434;-74
2021/07/27 01:49:04;;;;;;;59.38;34.40;;;;;;;;;;4972581;28;20206;-74
2021/07/27 01:51:31;;;;;;;63.03;36.90;;;;;;;;;;4969848;28;20949;-74
2021/07/27 01:53:57;;;;;;;62.47;34.67;;;;;;;;;;4971362;28;20631;-74
2021/07/27 01:56:23;;;;;;;65.88;37.22;;;;;;;;;;4968204;28;20260;-74
2021/07/27 01:58:50;;;;;;;66.72;35.20;;;;;;;;;;4989260;28;20206;-74
2021/07/27 02:01:15;;;;;;;72.88;38.60;;;;;;;;;;4971165;28;20553;-74
2021/07/27 02:03:41;;;;;;;78.95;40.88;;;;;;;;;;4972710;28;20179;-74
2021/07/27 02:06:06;;;;;;;73.85;38.58;;;;;;;;;;4969924;28;20232;-74
2021/07/27 02:08:31;;;;;;;74.15;41.10;;;;;;;;;;4970234;28;20720;-74
2021/07/27 02:11:03;;;;;;;76.47;39.80;;;;;;;;;;4970473;28;20222;-74
2021/07/27 02:13:30;;;;;;;80.47;40.58;;;;;;;;;;4971334;28;20179;-74
2021/07/27 02:15:56;;;;;;;84.82;43.53;;;;;;;;;;4970503;28;20187;-74
2021/07/27 02:18:21;;;;;;;80.35;41.47;;;;;;;;;;4968656;28;20248;-74
2021/07/27 02:20:46;;;;;;;77.15;41.35;;;;;;;;;;4970550;28;20760;-74
2021/07/27 02:23:12;;;;;;;85.68;41.90;;;;;;;;;;4969171;28;20180;-74
2021/07/27 02:25:37;;;;;;;84.75;43.28;;;;;;;;;;4969729;28;20440;-74
2021/07/27 02:28:02;;;;;;;79.43;41.90;;;;;;;;;;4971543;28;20199;-74
2021/07/27 02:30:30;;;;;;;94.13;45.45;;;;;;;;;;4968974;28;20192;-72
2021/07/27 02:32:55;;;;;;;93.53;46.33;;;;;;;;;;4971925;28;20211;-72
2021/07/27 02:35:20;;;;;;;97.57;45.97;;;;;;;;;;4983666;28;20263;-72
2021/07/27 02:37:45;;;;;;;119.25;50.95;;;;;;;;;;4971837;28;21065;-73
2021/07/27 02:40:11;;;;;;;132.10;53.37;;;;;;;;;;4972236;28;20789;-72
2021/07/27 02:42:36;;;;;;;124.05;50.75;;;;;;;;;;4970324;28;21556;-72
2021/07/27 02:45:05;;;;;;;143.98;56.65;;;;;;;;;;4975503;28;20180;-72
2021/07/27 02:47:31;;;;;;;143.40;56.45;;;;;;;;;;4968836;28;20233;-73
2021/07/27 02:49:56;;;;;;;158.40;62.22;;;;;;;;;;4965820;28;21263;-72
2021/07/27 02:52:21;;;;;;;144.63;58.42;;;;;;;;;;4967634;28;20186;-72
2021/07/27 02:54:46;;;;;;;135.73;53.37;;;;;;;;;;4968140;28;20274;-72
2021/07/27 02:57:12;;;;;;;159.75;57.90;;;;;;;;;;4963414;28;20507;-72
2021/07/27 02:59:37;;;;;;;142.15;56.97;;;;;;;;;;4970927;28;20657;-72
2021/07/27 03:02:02;;;;;;;151.77;59.85;;;;;;;;;;4965897;28;20221;-72
2021/07/27 03:04:27;;;;;;;166.90;60.45;;;;;;;;;;4970426;28;20273;-71
2021/07/27 03:06:53;;;;;;;167.98;60.97;;;;;;;;;;4971518;28;20262;-72
2021/07/27 03:09:24;;;;;;;147.05;60.42;;;;;;;;;;4972104;28;21885;-72
2021/07/27 03:11:49;;;;;;;160.07;64.57;;;;;;;;;;4979746;28;20190;-72
2021/07/27 03:14:14;;;;;;;144.93;59.83;;;;;;;;;;4974673;28;20183;-72
2021/07/27 03:16:40;;;;;;;163.80;64.22;;;;;;;;;;4973531;28;20611;-72
2021/07/27 03:19:05;;;;;;;168.10;65.10;;;;;;;;;;4972427;28;20693;-72
2021/07/27 03:21:30;;;;;;;168.43;67.43;;;;;;;;;;4972595;28;20460;-72
2021/07/27 03:23:55;;;;;;;153.43;62.60;;;;;;;;;;4973621;28;20503;-72
2021/07/27 03:26:21;;;;;;;163.35;64.88;;;;;;;;;;4971501;28;20621;-72
2021/07/27 03:28:46;;;;;;;155.05;61.42;;;;;;;;;;4972405;28;20223;-72
2021/07/27 03:31:12;;;;;;;165.43;66.72;;;;;;;;;;4971889;28;20246;-73
2021/07/27 03:33:37;;;;;;;153.02;62.97;;;;;;;;;;4971270;28;20207;-72
2021/07/27 03:36:02;;;;;;;156.60;62.15;;;;;;;;;;4991475;28;20175;-72
2021/07/27 03:38:28;;;;;;;150.57;63.05;;;;;;;;;;4985226;28;20245;-72
2021/07/27 03:41:02;;;;;;;169.73;66.53;;;;;;;;;;4984198;28;20207;-72
2021/07/27 03:43:27;;;;;;;167.82;64.88;;;;;;;;;;4978886;28;20188;-72
2021/07/27 03:45:52;;;;;;;166.10;62.87;;;;;;;;;;4973012;28;20269;-72
2021/07/27 03:48:18;;;;;;;172.07;65.93;;;;;;;;;;4974561;28;20464;-72
2021/07/27 03:50:43;;;;;;;174.25;64.30;;;;;;;;;;4971734;28;20463;-72
2021/07/27 03:53:16;;;;;;;162.60;62.87;;;;;;;;;;4971373;28;20626;-72
2021/07/27 03:55:41;;;;;;;163.32;63.58;;;;;;;;;;4972748;28;20524;-72
2021/07/27 03:58:06;;;;;;;147.07;60.67;;;;;;;;;;4973415;28;20217;-72
2021/07/27 04:00:32;;;;;;;144.13;59.53;;;;;;;;;;4972834;28;20669;-74
2021/07/27 04:02:57;;;;;;;154.30;62.85;;;;;;;;;;4967541;28;21967;-72
2021/07/27 04:05:22;;;;;;;161.33;63.63;;;;;;;;;;4969590;28;20226;-72
2021/07/27 04:07:48;;;;;;;158.93;65.07;;;;;;;;;;4988009;28;20449;-72
2021/07/27 04:10:13;;;;;;;170.63;63.53;;;;;;;;;;4972239;28;20421;-72
2021/07/27 04:12:38;;;;;;;153.75;64.03;;;;;;;;;;4971424;28;20869;-71
2021/07/27 04:15:04;;;;;;;150.75;60.80;;;;;;;;;;4971993;28;20172;-71
2021/07/27 04:17:29;;;;;;;143.30;60.80;;;;;;;;;;4969689;28;20222;-73
2021/07/27 04:19:54;;;;;;;143.82;59.75;;;;;;;;;;4972613;28;20184;-72
2021/07/27 04:22:19;;;;;;;136.23;56.97;;;;;;;;;;4972825;28;20210;-72
2021/07/27 04:24:45;;;;;;;135.52;55.60;;;;;;;;;;4973778;28;20233;-72
2021/07/27 04:27:10;;;;;;;135.63;54.95;;;;;;;;;;4971153;28;20691;-72
2021/07/27 04:29:35;;;;;;;135.93;55.77;;;;;;;;;;4978633;28;20188;-72
2021/07/27 04:32:00;;;;;;;126.13;55.13;;;;;;;;;;4971802;28;20495;-72
2021/07/27 04:34:25;;;;;;;114.87;51.37;;;;;;;;;;4974852;28;20200;-72
2021/07/27 04:36:50;;;;;;;110.03;49.50;;;;;;;;;;4971631;28;20455;-72
2021/07/27 04:39:16;;;;;;;102.00;50.75;;;;;;;;;;4972447;28;20483;-72
2021/07/27 04:41:41;;;;;;;101.43;48.58;;;;;;;;;;4969681;28;20461;-72
2021/07/27 04:44:06;;;;;;;100.05;46.72;;;;;;;;;;4972145;28;20188;-72
2021/07/27 04:46:31;;;;;;;99.82;48.05;;;;;;;;;;4970027;28;20194;-72
2021/07/27 04:48:56;;;;;;;85.50;46.28;;;;;;;;;;4972929;28;20210;-72
2021/07/27 04:51:22;;;;;;;86.38;47.05;;;;;;;;;;4983053;28;20437;-72
2021/07/27 04:53:49;;;;;;;86.43;43.45;;;;;;;;;;4979910;28;20266;-71
2021/07/27 04:56:14;;;;;;;84.95;42.80;;;;;;;;;;4969842;28;20194;-72
2021/07/27 04:58:39;;;;;;;78.68;41.42;;;;;;;;;;4972714;28;20191;-72
2021/07/27 05:01:04;;;;;;;77.55;41.88;;;;;;;;;;4971123;28;20203;-72
2021/07/27 05:03:30;;;;;;;74.05;40.30;;;;;;;;;;4970098;28;20267;-72
2021/07/27 05:05:55;;;;;;;61.10;38.40;;;;;;;;;;4972400;28;20175;-72
2021/07/27 05:08:20;;;;;;;65.28;37.05;;;;;;;;;;4970785;28;20582;-72
2021/07/27 05:10:45;;;;;;;57.35;35.85;;;;;;;;;;4969945;28;20775;-72
2021/07/27 05:13:11;;;;;;;62.03;37.37;;;;;;;;;;4975106;28;20199;-72
2021/07/27 05:15:36;;;;;;;63.38;35.50;;;;;;;;;;4971067;28;20456;-72
2021/07/27 05:18:01;;;;;;;55.95;35.47;;;;;;;;;;4970847;28;20586;-72
2021/07/27 05:20:29;;;;;;;56.60;34.63;;;;;;;;;;4968022;28;20242;-72
2021/07/27 05:22:55;;;;;;;59.97;34.28;;;;;;;;;;4970954;28;20997;-72
2021/07/27 05:25:21;;;;;;;50.25;33.10;;;;;;;;;;4970454;28;21789;-73
2021/07/27 05:27:46;;;;;;;47.05;31.70;;;;;;;;;;4971225;28;20211;-71
2021/07/27 05:30:12;;;;;;;46.92;30.95;;;;;;;;;;4972411;28;20187;-72
2021/07/27 05:32:38;;;;;;;45.78;31.45;;;;;;;;;;4984334;28;20274;-72
2021/07/27 05:35:03;;;;;;;44.33;29.35;;;;;;;;;;4969817;28;20302;-72
2021/07/27 05:37:28;;;;;;;41.40;29.80;;;;;;;;;;4974709;28;20724;-72
2021/07/27 05:39:55;;;;;;;38.60;27.35;;;;;;;;;;4971433;28;20266;-72
2021/07/27 05:42:20;;;;;;;36.33;27.33;;;;;;;;;;4970877;28;20231;-72
2021/07/27 05:44:46;;;;;;;33.20;26.77;;;;;;;;;;4971400;28;20306;-72
2021/07/27 05:47:11;;;;;;;37.03;26.90;;;;;;;;;;4968886;28;20206;-72
2021/07/27 05:49:37;;;;;;;35.40;25.40;;;;;;;;;;4968811;28;20191;-71
2021/07/27 05:52:03;;;;;;;30.55;23.95;;;;;;;;;;4968096;28;20439;-73
2021/07/27 05:54:28;;;;;;;31.95;25.80;;;;;;;;;;4975345;28;20180;-72
2021/07/27 05:56:54;;;;;;;30.02;23.00;;;;;;;;;;4971096;28;20635;-73
2021/07/27 05:59:20;;;;;;;32.50;24.50;;;;;;;;;;4970735;28;20183;-72
2021/07/27 06:01:49;;;;;;;31.20;22.83;;;;;;;;;;4970297;28;20212;-74
2021/07/27 06:04:14;;;;;;;26.20;21.92;;;;;;;;;;4970154;28;20266;-72
2021/07/27 06:06:39;;;;;;;30.45;23.02;;;;;;;;;;4969840;28;20184;-73
2021/07/27 06:09:06;;;;;;;29.23;21.67;;;;;;;;;;4969044;28;20203;-75
2021/07/27 06:11:32;;;;;;;28.63;22.08;;;;;;;;;;4968806;28;20180;-74
2021/07/27 06:13:57;;;;;;;27.60;21.20;;;;;;;;;;4969121;28;20183;-74
2021/07/27 06:16:23;;;;;;;24.95;21.92;;;;;;;;;;4970933;28;20238;-72
2021/07/27 06:18:48;;;;;;;27.23;21.90;;;;;;;;;;4970339;28;20301;-73
2021/07/27 06:21:13;;;;;;;29.50;22.97;;;;;;;;;;4973009;28;20206;-72
2021/07/27 06:23:38;;;;;;;31.73;22.45;;;;;;;;;;4972370;28;20647;-73
2021/07/27 06:26:04;;;;;;;27.13;21.50;;;;;;;;;;4970094;28;20183;-73
2021/07/27 06:28:29;;;;;;;27.67;21.73;;;;;;;;;;4986737;28;22198;-73
2021/07/27 06:30:55;;;;;;;27.57;21.40;;;;;;;;;;4970754;28;20182;-73
2021/07/27 06:33:20;;;;;;;27.43;21.83;;;;;;;;;;4971478;28;21087;-73
2021/07/27 06:35:45;;;;;;;27.23;21.70;;;;;;;;;;4972288;28;20425;-73
2021/07/27 06:38:10;;;;;;;30.90;22.07;;;;;;;;;;4972347;28;21156;-73
2021/07/27 06:40:35;;;;;;;25.87;21.53;;;;;;;;;;4971597;28;20479;-73
2021/07/27 06:43:01;;;;;;;27.83;20.35;;;;;;;;;;4971340;28;20985;-73
2021/07/27 06:45:26;;;;;;;31.30;22.88;;;;;;;;;;4988745;28;20200;-75
2021/07/27 06:47:51;;;;;;;24.33;19.90;;;;;;;;;;4976969;28;20685;-73
2021/07/27 06:50:16;;;;;;;28.70;22.42;;;;;;;;;;4989703;28;20429;-72
2021/07/27 06:52:41;;;;;;;31.13;23.17;;;;;;;;;;4980928;28;21554;-73
2021/07/27 06:55:07;;;;;;;26.95;20.27;;;;;;;;;;4976204;28;20199;-73
2021/07/27 06:57:32;;;;;;;29.05;19.85;;;;;;;;;;4975277;28;20261;-73
2021/07/27 06:59:57;;;;;;;25.40;20.45;;;;;;;;;;4977697;28;20210;-73
2021/07/27 07:02:24;;;;;;;27.30;20.65;;;;;;;;;;4974472;28;20211;-72
2021/07/27 07:04:49;;;;;;;22.60;20.13;;;;;;;;;;4973960;28;20461;-72
2021/07/27 07:07:14;;;;;;;24.30;20.20;;;;;;;;;;4973399;28;20199;-75
2021/07/27 07:09:39;;;;;;;24.17;19.97;;;;;;;;;;4975011;28;20250;-75
2021/07/27 07:12:07;;;;;;;25.53;19.47;;;;;;;;;;4974303;28;20567;-75
2021/07/27 07:14:32;;;;;;;22.70;18.88;;;;;;;;;;4975591;28;20421;-75
2021/07/27 07:16:58;;;;;;;22.47;18.03;;;;;;;;;;4974118;28;20250;-75
2021/07/27 07:19:23;;;;;;;21.93;19.27;;;;;;;;;;4973697;28;20432;-74
2021/07/27 07:21:48;;;;;;;23.70;19.10;;;;;;;;;;4974251;28;20547;-74
2021/07/27 07:24:13;;;;;;;24.07;20.47;;;;;;;;;;4972152;28;20464;-75
2021/07/27 07:26:39;;;;;;;23.30;18.33;;;;;;;;;;4977676;28;20428;-75
2021/07/27 07:29:04;;;;;;;25.05;19.55;;;;;;;;;;4984245;28;20472;-75
2021/07/27 07:31:29;;;;;;;26.60;19.80;;;;;;;;;;4986226;28;20176;-74
2021/07/27 07:33:59;;;;;;;29.40;19.50;;;;;;;;;;4987454;28;20487;-75
2021/07/27 07:36:24;;;;;;;23.92;18.63;;;;;;;;;;4988477;28;20429;-75
2021/07/27 07:38:49;;;;;;;23.73;19.65;;;;;;;;;;4984681;28;20197;-75
2021/07/27 07:41:14;;;;;;;23.45;19.83;;;;;;;;;;4985579;28;20446;-74
2021/07/27 07:43:40;;;;;;;22.67;19.10;;;;;;;;;;4987575;28;20681;-75
2021/07/27 07:46:05;;;;;;;25.83;19.40;;;;;;;;;;4978743;28;20430;-75
2021/07/27 07:48:31;;;;;;;25.58;19.20;;;;;;;;;;4983932;28;20702;-76
2021/07/27 07:50:56;;;;;;;25.73;20.05;;;;;;;;;;4980579;28;20666;-75
2021/07/27 07:53:21;;;;;;;23.65;19.48;;;;;;;;;;4982233;28;20172;-75
2021/07/27 07:55:46;;;;;;;29.27;20.07;;;;;;;;;;4984693;28;20188;-75
2021/07/27 07:58:11;;;;;;;24.20;18.27;;;;;;;;;;4984007;28;20957;-75
2021/07/27 08:00:37;;;;;;;23.60;20.05;;;;;;;;;;4984211;28;20525;-75
2021/07/27 08:03:03;;;;;;;24.38;20.55;;;;;;;;;;4987635;28;21125;-75
2021/07/27 08:05:28;;;;;;;25.85;19.48;;;;;;;;;;4988096;28;20661;-75
2021/07/27 08:07:53;;;;;;;27.20;19.70;;;;;;;;;;4990100;28;20195;-75
2021/07/27 08:10:18;;;;;;;23.10;19.13;;;;;;;;;;4982175;28;20182;-75
2021/07/27 08:12:46;;;;;;;25.88;19.45;;;;;;;;;;4985669;28;20512;-76
2021/07/27 08:15:11;;;;;;;23.50;20.08;;;;;;;;;;4988004;28;20179;-75
2021/07/27 08:17:36;;;;;;;22.80;18.77;;;;;;;;;;4986928;28;20211;-75
2021/07/27 08:20:03;;;;;;;27.52;21.27;;;;;;;;;;4981140;28;20184;-75
2021/07/27 08:22:28;;;;;;;27.02;23.48;;;;;;;;;;4987601;28;20199;-75
2021/07/27 08:24:53;;;;;;;26.10;22.70;;;;;;;;;;4990309;28;20172;-76
2021/07/27 08:27:19;;;;;;;30.57;23.60;;;;;;;;;;4985709;28;20471;-76
2021/07/27 08:29:44;;;;;;;29.87;25.20;;;;;;;;;;4980593;28;20517;-76
2021/07/27 08:32:10;;;;;;;27.10;24.27;;;;;;;;;;4986260;28;20433;-77
2021/07/27 08:34:39;;;;;;;28.85;24.35;;;;;;;;;;4984667;28;20501;-76
2021/07/27 08:37:04;;;;;;;29.60;24.75;;;;;;;;;;4984165;28;20187;-76
2021/07/27 08:39:30;;;;;;;30.58;25.00;;;;;;;;;;4989128;28;20167;-76
2021/07/27 08:41:58;;;;;;;30.92;24.55;;;;;;;;;;4987937;28;20279;-76
2021/07/27 08:44:24;;;;;;;26.50;23.23;;;;;;;;;;4985032;28;20693;-78
2021/07/27 08:46:50;;;;;;;25.63;23.02;;;;;;;;;;4984213;28;20267;-76
2021/07/27 08:49:15;;;;;;;26.23;22.38;;;;;;;;;;4988869;28;20191;-76
2021/07/27 08:51:41;;;;;;;30.15;22.77;;;;;;;;;;4990622;28;20245;-76
2021/07/27 08:54:07;;;;;;;23.50;21.02;;;;;;;;;;4989372;28;20267;-75
2021/07/27 08:56:32;;;;;;;25.88;22.75;;;;;;;;;;4985386;28;20745;-75
2021/07/27 08:58:57;;;;;;;23.57;20.93;;;;;;;;;;4984164;28;20209;-76
2021/07/27 09:01:26;;;;;;;25.10;21.75;;;;;;;;;;4984619;28;20219;-75
2021/07/27 09:03:51;;;;;;;24.25;21.65;;;;;;;;;;4988761;28;20191;-75
2021/07/27 09:06:21;;;;;;;23.97;20.60;;;;;;;;;;4987394;28;20180;-75
2021/07/27 09:08:46;;;;;;;22.88;20.42;;;;;;;;;;4996980;28;20449;-72
2021/07/27 09:11:12;;;;;;;24.83;20.03;;;;;;;;;;4979009;28;20184;-75
2021/07/27 09:13:37;;;;;;;23.48;20.88;;;;;;;;;;4983725;28;20430;-76
2021/07/27 09:16:03;;;;;;;24.07;21.47;;;;;;;;;;4982737;28;20187;-74
2021/07/27 09:18:29;;;;;;;24.85;21.02;;;;;;;;;;4982876;28;20458;-75
2021/07/27 09:20:55;;;;;;;26.85;22.38;;;;;;;;;;4984753;28;20199;-75
2021/07/27 09:23:21;;;;;;;23.20;20.77;;;;;;;;;;4985575;28;20181;-75
2021/07/27 09:25:50;;;;;;;28.52;22.80;;;;;;;;;;4984438;28;20172;-75
2021/07/27 09:28:16;;;;;;;25.67;22.98;;;;;;;;;;4987814;28;20220;-75
2021/07/27 09:30:42;;;;;;;28.30;25.05;;;;;;;;;;4986340;28;20210;-75
2021/07/27 09:33:09;;;;;;;25.95;23.15;;;;;;;;;;4986400;28;20184;-75
2021/07/27 09:35:34;;;;;;;26.85;24.05;;;;;;;;;;4981331;28;20737;-75
2021/07/27 09:38:00;;;;;;;25.77;23.02;;;;;;;;;;4982075;28;20282;-74
2021/07/27 09:40:25;;;;;;;26.45;23.65;;;;;;;;;;4982862;28;20191;-75
2021/07/27 09:42:51;;;;;;;28.17;23.48;;;;;;;;;;4981871;28;20235;-75
2021/07/27 09:45:16;;;;;;;22.35;20.08;;;;;;;;;;4977623;28;20183;-75
2021/07/27 09:47:41;;;;;;;22.63;19.70;;;;;;;;;;4990876;28;20234;-75
2021/07/27 09:50:07;;;;;;;19.67;17.67;;;;;;;;;;5000361;28;20226;-75
2021/07/27 09:52:32;;;;;;;20.38;17.10;;;;;;;;;;4982092;28;20317;-75
2021/07/27 09:54:58;;;;;;;16.23;14.52;;;;;;;;;;4982627;28;20188;-75
2021/07/27 09:57:23;;;;;;;15.75;13.85;;;;;;;;;;4984674;28;20222;-74
2021/07/27 09:59:49;;;;;;;15.15;13.57;;;;;;;;;;4977620;28;20188;-75
2021/07/27 10:02:15;;;;;;;15.38;13.77;;;;;;;;;;4986098;28;20203;-75
2021/07/27 10:04:44;;;;;;;15.25;13.80;;;;;;;;;;4986969;28;20271;-75
2021/07/27 10:07:09;;;;;;;14.10;12.70;;;;;;;;;;4989646;28;20574;-75
2021/07/27 10:09:35;;;;;;;14.63;12.98;;;;;;;;;;4982544;28;20175;-75
2021/07/27 10:12:12;;;;;;;14.23;12.63;;;;;;;;;;4989974;28;20207;-75
2021/07/27 10:14:42;;;;;;;14.75;13.18;;;;;;;;;;4985865;28;20193;-73
2021/07/27 10:17:08;;;;;;;15.75;13.25;;;;;;;;;;4991687;28;20187;-75
2021/07/27 10:19:46;;;;;;;14.40;12.95;;;;;;;;;;4991489;28;20671;-75
2021/07/27 10:22:12;;;;;;;14.82;13.25;;;;;;;;;;4995914;28;20226;-75
2021/07/27 10:24:37;;;;;;;16.70;14.80;;;;;;;;;;4993729;28;20207;-75
2021/07/27 10:27:06;;;;;;;16.15;13.77;;;;;;;;;;4988176;28;20185;-76
2021/07/27 10:29:31;;;;;;;17.35;14.25;;;;;;;;;;4986624;28;20684;-76
2021/07/27 10:31:59;;;;;;;14.60;13.10;;;;;;;;;;4987858;28;20188;-72
2021/07/27 10:34:32;;;;;;;16.45;12.57;;;;;;;;;;4992540;28;20463;-76
2021/07/27 10:37:05;;;;;;;15.05;13.18;;;;;;;;;;4993418;28;20183;-75
2021/07/27 10:39:30;;;;;;;13.10;11.40;;;;;;;;;;4992881;28;20262;-75
2021/07/27 10:42:05;;;;;;;15.27;12.63;;;;;;;;;;4992938;28;20751;-76
2021/07/27 10:44:34;;;;;;;16.20;12.07;;;;;;;;;;4985334;28;20425;-76
2021/07/27 10:47:00;;;;;;;15.25;12.43;;;;;;;;;;4990927;28;20184;-75
2021/07/27 10:49:25;;;;;;;13.70;11.27;;;;;;;;;;4992971;28;20183;-75
2021/07/27 10:51:54;;;;;;;12.68;11.32;;;;;;;;;;4988079;28;20190;-74
2021/07/27 10:54:27;;;;;;;14.43;11.02;;;;;;;;;;4991894;28;20670;-75
2021/07/27 10:56:58;;;;;;;10.20;8.82;;;;;;;;;;4987656;28;20184;-75
2021/07/27 10:59:26;;;;;;;13.00;8.30;;;;;;;;;;4981406;28;20200;-75
2021/07/27 11:01:52;;;;;;;8.48;7.63;;;;;;;;;;4993315;28;20286;-75
2021/07/27 11:04:17;;;;;;;9.07;6.10;;;;;;;;;;4989795;28;20180;-76
2021/07/27 11:06:43;;;;;;;6.32;5.63;;;;;;;;;;4990938;28;20179;-75
2021/07/27 11:09:12;;;;;;;9.98;6.55;;;;;;;;;;4986226;28;20200;-75
2021/07/27 11:11:47;;;;;;;9.85;6.45;;;;;;;;;;4980652;28;20275;-75
2021/07/27 11:14:20;;;;;;;6.32;5.60;;;;;;;;;;4986065;28;20179;-75
2021/07/27 11:16:45;;;;;;;6.95;5.35;;;;;;;;;;4995881;28;20207;-75
2021/07/27 11:19:10;;;;;;;5.47;4.65;;;;;;;;;;4986306;28;20240;-75
2021/07/27 11:21:38;;;;;;;6.15;4.25;;;;;;;;;;4990806;28;20310;-76
2021/07/27 11:24:04;;;;;;;7.13;5.63;;;;;;;;;;4988981;28;20184;-75
2021/07/27 11:26:36;;;;;;;6.55;5.00;;;;;;;;;;4994799;28;20190;-75
2021/07/27 11:29:08;;;;;;;7.75;5.70;;;;;;;;;;4998438;28;20302;-75
2021/07/27 11:31:43;;;;;;;6.47;5.22;;;;;;;;;;4987747;28;20202;-75
2021/07/27 11:34:08;;;;;;;5.80;4.63;;;;;;;;;;4981181;28;20187;-76
2021/07/27 11:36:33;;;;;;;6.10;4.43;;;;;;;;;;4981653;28;20236;-75
2021/07/27 11:39:05;;;;;;;5.33;4.67;;;;;;;;;;4988456;28;20357;-75
2021/07/27 11:41:31;;;;;;;4.70;4.03;;;;;;;;;;4984585;28;20449;-76
2021/07/27 11:43:56;;;;;;;5.82;4.32;;;;;;;;;;4982642;28;20168;-76
2021/07/27 11:46:29;;;;;;;4.93;4.20;;;;;;;;;;4984854;28;20180;-76
2021/07/27 11:48:54;;;;;;;6.38;4.18;;;;;;;;;;4990187;28;20238;-76
2021/07/27 11:51:35;;;;;;;10.50;6.90;;;;;;;;;;4981055;28;20200;-76
2021/07/27 11:54:00;;;;;;;6.72;4.13;;;;;;;;;;4985659;28;20206;-76
2021/07/27 11:56:26;;;;;;;4.00;3.70;;;;;;;;;;4983068;28;20175;-76
2021/07/27 11:59:01;;;;;;;4.72;3.70;;;;;;;;;;4987359;28;20269;-73
2021/07/27 12:01:36;;;;;;;5.60;3.90;;;;;;;;;;4987891;28;20688;-75
2021/07/27 12:04:01;;;;;;;4.55;4.07;;;;;;;;;;5002694;28;20230;-76
2021/07/27 12:06:27;;;;;;;5.93;4.83;;;;;;;;;;4984841;28;20617;-76
2021/07/27 12:08:52;;;;;;;5.55;4.53;;;;;;;;;;4987639;28;20460;-75
2021/07/27 12:11:17;;;;;;;5.50;4.67;;;;;;;;;;4985591;28;20215;-74
2021/07/27 12:13:42;;;;;;;5.60;4.90;;;;;;;;;;4986920;28;20524;-75
2021/07/27 12:16:07;;;;;;;5.37;4.87;;;;;;;;;;4982454;28;20192;-76
2021/07/27 12:18:32;;;;;;;6.47;5.00;;;;;;;;;;4987177;28;20479;-75
2021/07/27 12:20:58;;;;;;;7.87;5.50;;;;;;;;;;4988238;28;20191;-75
2021/07/27 12:23:23;;;;;;;7.13;4.97;;;;;;;;;;4989606;28;20779;-75
2021/07/27 12:25:48;;;;;;;6.73;5.23;;;;;;;;;;4983884;28;20442;-74
2021/07/27 12:28:14;;;;;;;6.20;5.27;;;;;;;;;;4990182;28;20457;-74
2021/07/27 12:30:39;;;;;;;5.70;4.78;;;;;;;;;;4988426;28;20532;-74
2021/07/27 12:33:04;;;;;;;4.97;4.43;;;;;;;;;;4993310;28;20188;-75
2021/07/27 12:35:29;;;;;;;6.28;4.43;;;;;;;;;;4984036;28;20179;-73
2021/07/27 12:37:54;;;;;;;4.97;4.50;;;;;;;;;;4986220;28;20200;-74
2021/07/27 12:40:20;;;;;;;8.15;5.60;;;;;;;;;;4987010;28;20926;-74
2021/07/27 12:42:45;;;;;;;6.22;5.13;;;;;;;;;;4988935;28;20207;-73
2021/07/27 12:45:10;;;;;;;5.83;4.60;;;;;;;;;;4989931;28;20180;-72
2021/07/27 12:47:36;;;;;;;7.97;5.28;;;;;;;;;;4992109;28;20484;-73
2021/07/27 12:50:03;;;;;;;6.80;5.28;;;;;;;;;;4989613;28;20179;-73
2021/07/27 12:52:28;;;;;;;4.93;4.00;;;;;;;;;;4986338;28;20279;-74
2021/07/27 12:54:53;;;;;;;5.97;4.83;;;;;;;;;;4991719;28;20679;-73
2021/07/27 12:57:18;;;;;;;5.37;4.63;;;;;;;;;;4985353;28;21243;-73
2021/07/27 12:59:43;;;;;;;5.77;4.53;;;;;;;;;;4984207;28;20179;-73
2021/07/27 13:02:09;;;;;;;5.88;4.90;;;;;;;;;;4987133;28;21309;-73
2021/07/27 13:04:35;;;;;;;5.28;4.78;;;;;;;;;;4990771;28;20246;-73
2021/07/27 13:07:00;;;;;;;8.10;4.60;;;;;;;;;;4988229;28;20579;-73
2021/07/27 13:09:25;;;;;;;4.93;4.37;;;;;;;;;;4990869;28;20270;-73
2021/07/27 13:11:50;;;;;;;5.53;4.63;;;;;;;;;;4985645;28;20565;-73
2021/07/27 13:14:15;;;;;;;5.20;3.88;;;;;;;;;;4988944;28;20218;-72
2021/07/27 13:16:41;;;;;;;5.73;4.20;;;;;;;;;;4988266;28;20179;-72
2021/07/27 13:19:06;;;;;;;5.68;3.90;;;;;;;;;;4981721;28;20461;-73
2021/07/27 13:21:31;;;;;;;4.47;3.88;;;;;;;;;;4983919;28;20565;-73
2021/07/27 13:24:03;;;;;;;6.47;3.97;;;;;;;;;;4985952;28;20188;-73
2021/07/27 13:26:28;;;;;;;8.52;5.50;;;;;;;;;;4985231;28;20184;-73
2021/07/27 13:28:53;;;;;;;6.53;5.67;;;;;;;;;;4982846;28;20207;-73
2021/07/27 13:31:20;;;;;;;5.90;5.32;;;;;;;;;;4989203;28;20200;-72
2021/07/27 13:33:45;;;;;;;8.13;5.38;;;;;;;;;;4977803;28;20240;-73
2021/07/27 13:36:11;;;;;;;8.37;5.77;;;;;;;;;;4985675;28;20656;-74
2021/07/27 13:38:36;;;;;;;6.90;5.57;;;;;;;;;;4985485;28;20266;-73
2021/07/27 13:41:01;;;;;;;8.00;5.40;;;;;;;;;;4982687;28;20179;-73
2021/07/27 13:43:26;;;;;;;5.77;5.13;;;;;;;;;;4989727;28;20177;-73
2021/07/27 13:45:52;;;;;;;5.97;4.82;;;;;;;;;;4981917;28;20761;-74
2021/07/27 13:48:17;;;;;;;7.68;5.00;;;;;;;;;;4984577;28;20204;-72
2021/07/27 13:50:42;;;;;;;6.65;5.25;;;;;;;;;;4981254;28;20256;-73
2021/07/27 13:53:07;;;;;;;6.65;5.22;;;;;;;;;;4985692;28;20191;-73
2021/07/27 13:55:32;;;;;;;6.73;5.60;;;;;;;;;;4986952;28;20175;-73
2021/07/27 13:57:58;;;;;;;6.97;5.22;;;;;;;;;;4983343;28;20670;-72
2021/07/27 14:00:23;;;;;;;6.72;6.13;;;;;;;;;;4985841;28;20184;-73
2021/07/27 14:02:49;;;;;;;6.67;5.63;;;;;;;;;;4987599;28;20637;-74
2021/07/27 14:05:14;;;;;;;8.40;6.50;;;;;;;;;;4997721;28;20168;-73
2021/07/27 14:07:39;;;;;;;6.60;5.75;;;;;;;;;;4984735;28;20707;-74
2021/07/27 14:10:05;;;;;;;9.10;6.90;;;;;;;;;;4983314;28;20182;-74
2021/07/27 14:12:31;;;;;;;8.70;6.70;;;;;;;;;;4983247;28;20715;-73
2021/07/27 14:14:56;;;;;;;8.75;7.20;;;;;;;;;;4985878;28;20223;-72
2021/07/27 14:17:21;;;;;;;7.60;6.70;;;;;;;;;;4989211;28;20196;-73
2021/07/27 14:19:47;;;;;;;9.05;7.68;;;;;;;;;;4987516;28;20175;-74
2021/07/27 14:22:15;;;;;;;9.05;7.35;;;;;;;;;;4981842;28;20586;-73
2021/07/27 14:24:40;;;;;;;8.90;8.02;;;;;;;;;;4985738;28;20214;-74
2021/07/27 14:27:06;;;;;;;9.55;7.97;;;;;;;;;;4986068;28;20203;-73
2021/07/27 14:29:31;;;;;;;10.93;8.45;;;;;;;;;;4987174;28;20180;-73
2021/07/27 14:31:57;;;;;;;11.20;8.90;;;;;;;;;;4985891;28;20215;-73
2021/07/27 14:34:23;;;;;;;13.20;10.43;;;;;;;;;;4984572;28;20433;-74
2021/07/27 14:36:51;;;;;;;11.23;10.10;;;;;;;;;;4985709;28;20258;-74
2021/07/27 14:39:16;;;;;;;16.30;12.18;;;;;;;;;;4977678;28;20192;-74